createdAt,value
2022-12-03T00:00:16.414Z,2.55
2022-12-03T00:03:05.052Z,2.54
2022-12-03T00:05:33.889Z,2.53
2022-12-03T00:08:02.344Z,2.56
2022-12-03T00:10:30.953Z,2.59
2022-12-03T00:12:59.580Z,2.61
2022-12-03T00:15:28.187Z,2.62
2022-12-03T00:17:56.707Z,2.64
2022-12-03T00:20:25.494Z,2.62
2022-12-03T00:22:53.876Z,2.61
2022-12-03T00:25:22.459Z,2.62
2022-12-03T00:27:51.657Z,2.60
2022-12-03T00:30:19.934Z,2.57
2022-12-03T00:32:48.212Z,2.54
2022-12-03T00:35:17.167Z,2.50
2022-12-03T00:37:45.686Z,2.48
2022-12-03T00:40:14.577Z,2.46
2022-12-03T00:42:43.265Z,2.46
2022-12-03T00:45:11.950Z,2.45
2022-12-03T00:47:40.329Z,2.45
2022-12-03T00:50:09.530Z,2.45
2022-12-03T00:52:37.906Z,2.46
2022-12-03T00:55:06.900Z,2.47
2022-12-03T00:57:35.690Z,2.50
2022-12-03T01:00:04.832Z,2.52
2022-12-03T01:02:33.374Z,2.52
2022-12-03T01:05:02.657Z,2.51
2022-12-03T01:07:31.417Z,2.49
2022-12-03T01:09:59.840Z,2.47
2022-12-03T01:12:28.533Z,2.44
2022-12-03T01:14:56.968Z,2.43
2022-12-03T01:17:25.389Z,2.42
2022-12-03T01:19:54.277Z,2.43
2022-12-03T01:22:22.761Z,2.44
2022-12-03T01:24:51.677Z,2.43
2022-12-03T01:27:20.746Z,2.46
2022-12-03T01:29:49.330Z,2.49
2022-12-03T01:32:18.026Z,2.53
2022-12-03T01:34:47.678Z,2.52
2022-12-03T01:37:16.776Z,2.55
2022-12-03T01:39:45.304Z,2.59
2022-12-03T01:42:22.797Z,2.59
2022-12-03T01:44:52.997Z,2.59
2022-12-03T01:47:25.055Z,2.62
2022-12-03T01:49:55.180Z,2.63
2022-12-03T01:52:27.582Z,2.64
2022-12-03T01:54:57.252Z,2.64
2022-12-03T01:57:27.522Z,2.67
2022-12-03T01:59:56.579Z,2.69
2022-12-03T02:02:26.363Z,2.66
2022-12-03T02:04:55.707Z,2.63
2022-12-03T02:07:26.210Z,2.61
2022-12-03T02:09:55.756Z,2.56
2022-12-03T02:12:36.712Z,2.50
2022-12-03T02:15:06.441Z,2.45
2022-12-03T02:17:35.483Z,2.42
2022-12-03T02:20:07.807Z,2.40
2022-12-03T02:22:56.769Z,2.41
2022-12-03T02:25:26.377Z,2.40
2022-12-03T02:27:55.478Z,2.37
2022-12-03T02:30:24.947Z,2.34
2022-12-03T02:32:54.281Z,2.31
2022-12-03T02:35:24.816Z,2.32
2022-12-03T02:37:59.911Z,2.33
2022-12-03T02:40:31.503Z,2.33
2022-12-03T02:43:01.584Z,2.33
2022-12-03T02:45:41.878Z,2.34
2022-12-03T02:48:30.638Z,2.36
2022-12-03T02:51:01.268Z,2.37
2022-12-03T02:53:42.721Z,2.38
2022-12-03T02:56:12.465Z,2.37
2022-12-03T02:58:41.739Z,2.37
2022-12-03T03:01:11.254Z,2.38
2022-12-03T03:03:40.367Z,2.37
2022-12-03T03:06:08.952Z,2.40
2022-12-03T03:08:38.425Z,2.43
2022-12-03T03:11:06.938Z,2.44
2022-12-03T03:13:35.875Z,2.45
2022-12-03T03:16:06.075Z,2.43
2022-12-03T03:18:34.842Z,2.43
2022-12-03T03:21:04.247Z,2.45
2022-12-03T03:23:32.931Z,2.47
2022-12-03T03:26:01.515Z,2.50
2022-12-03T03:28:30.673Z,2.52
2022-12-03T03:31:01.038Z,2.53
2022-12-03T03:33:29.864Z,2.54
2022-12-03T03:36:00.766Z,2.54
2022-12-03T03:38:30.273Z,2.52
2022-12-03T03:40:59.630Z,2.49
2022-12-03T03:43:29.289Z,2.47
2022-12-03T03:45:57.816Z,2.44
2022-12-03T03:48:26.556Z,2.41
2022-12-03T03:50:55.140Z,2.39
2022-12-03T03:53:24.907Z,2.38
2022-12-03T03:55:53.715Z,2.37
2022-12-03T03:58:22.324Z,2.35
2022-12-03T04:00:51.448Z,2.37
2022-12-03T04:03:19.905Z,2.40
2022-12-03T04:05:51.252Z,2.43
2022-12-03T04:08:19.938Z,2.43
2022-12-03T04:11:07.465Z,2.44
2022-12-03T04:13:36.049Z,2.46
2022-12-03T04:16:04.794Z,2.48
2022-12-03T04:18:45.168Z,2.49
2022-12-03T04:21:36.925Z,2.49
2022-12-03T04:24:06.027Z,2.45
2022-12-03T04:26:53.550Z,2.41
2022-12-03T04:29:22.403Z,2.39
2022-12-03T04:32:10.084Z,2.38
2022-12-03T04:34:57.181Z,2.37
2022-12-03T04:37:25.958Z,2.38
2022-12-03T04:39:54.609Z,2.39
2022-12-03T04:42:23.128Z,2.41
2022-12-03T04:44:52.304Z,2.43
2022-12-03T04:47:21.954Z,2.43
2022-12-03T04:49:51.376Z,2.43
2022-12-03T04:52:21.374Z,2.42
2022-12-03T04:54:49.758Z,2.41
2022-12-03T04:57:18.720Z,2.41
2022-12-03T04:59:47.443Z,2.40
2022-12-03T05:02:15.901Z,2.37
2022-12-03T05:04:45.317Z,2.34
2022-12-03T05:07:14.004Z,2.32
2022-12-03T05:09:42.282Z,2.30
2022-12-03T05:12:10.660Z,2.29
2022-12-03T05:14:39.450Z,2.29
2022-12-03T05:17:08.086Z,2.30
2022-12-03T05:19:55.356Z,2.31
2022-12-03T05:22:23.824Z,2.33
2022-12-03T05:24:52.338Z,2.34
2022-12-03T05:27:24.195Z,2.37
2022-12-03T05:29:53.278Z,2.39
2022-12-03T05:32:21.831Z,2.42
2022-12-03T05:34:50.738Z,2.43
2022-12-03T05:37:19.438Z,2.42
2022-12-03T05:39:47.920Z,2.40
2022-12-03T05:42:35.347Z,2.36
2022-12-03T05:45:04.135Z,2.32
2022-12-03T05:47:32.413Z,2.28
2022-12-03T05:50:00.994Z,2.25
2022-12-03T05:52:29.476Z,2.25
2022-12-03T05:54:57.754Z,2.24
2022-12-03T05:57:26.407Z,2.26
2022-12-03T05:59:54.821Z,2.30
2022-12-03T06:02:23.405Z,2.34
2022-12-03T06:04:52.659Z,2.34
2022-12-03T06:07:21.384Z,2.36
2022-12-03T06:09:49.668Z,2.40
2022-12-03T06:12:18.422Z,2.46
2022-12-03T06:14:47.332Z,2.47
2022-12-03T06:17:15.806Z,2.50
2022-12-03T06:19:44.313Z,2.52
2022-12-03T06:22:13.508Z,2.52
2022-12-03T06:24:42.039Z,2.50
2022-12-03T06:27:10.478Z,2.47
2022-12-03T06:29:39.158Z,2.46
2022-12-03T06:32:07.857Z,2.44
2022-12-03T06:34:36.635Z,2.42
2022-12-03T06:37:05.118Z,2.41
2022-12-03T06:39:33.563Z,2.40
2022-12-03T06:42:03.386Z,2.39
2022-12-03T06:44:32.303Z,2.38
2022-12-03T06:47:00.760Z,2.40
2022-12-03T06:49:29.673Z,2.41
2022-12-03T06:51:58.155Z,2.43
2022-12-03T06:54:26.638Z,2.43
2022-12-03T06:56:55.549Z,2.43
2022-12-03T06:59:24.125Z,2.46
2022-12-03T07:01:52.526Z,2.48
2022-12-03T07:04:21.291Z,2.52
2022-12-03T07:06:50.070Z,2.54
2022-12-03T07:09:18.382Z,2.55
2022-12-03T07:11:47.145Z,2.55
2022-12-03T07:14:15.826Z,2.54
2022-12-03T07:16:44.380Z,2.54
2022-12-03T07:19:12.989Z,2.56
2022-12-03T07:21:41.576Z,2.62
2022-12-03T07:24:10.467Z,2.65
2022-12-03T07:26:39.055Z,2.68
2022-12-03T07:29:07.634Z,2.70
2022-12-03T07:31:36.174Z,2.73
2022-12-03T07:34:04.495Z,2.77
2022-12-03T07:36:33.252Z,2.80
2022-12-03T07:39:01.969Z,2.83
2022-12-03T07:41:30.351Z,2.89
2022-12-03T07:43:59.137Z,2.92
2022-12-03T07:46:27.661Z,2.94
2022-12-03T07:48:56.098Z,2.97
2022-12-03T07:51:28.971Z,2.98
2022-12-03T07:54:00.950Z,2.99
2022-12-03T07:56:29.633Z,3.00
2022-12-03T07:58:58.422Z,3.02
2022-12-03T08:01:27.004Z,3.05
2022-12-03T08:03:55.661Z,3.08
2022-12-03T08:06:24.276Z,3.10
2022-12-03T08:08:52.759Z,3.12
2022-12-03T08:11:21.546Z,3.13
2022-12-03T08:13:49.930Z,3.10
2022-12-03T08:16:19.930Z,3.09
2022-12-03T08:18:49.046Z,3.08
2022-12-03T08:21:21.740Z,3.08
2022-12-03T08:23:50.612Z,3.09
2022-12-03T08:26:23.734Z,3.10
2022-12-03T08:28:53.323Z,3.14
2022-12-03T08:31:29.308Z,3.16
2022-12-03T08:34:19.465Z,3.21
2022-12-03T08:36:48.528Z,3.28
2022-12-03T08:39:23.794Z,3.31
2022-12-03T08:42:15.725Z,3.33
2022-12-03T08:44:44.615Z,3.33
2022-12-03T08:47:16.853Z,3.34
2022-12-03T08:49:48.134Z,3.35
2022-12-03T08:52:18.217Z,3.34
2022-12-03T08:54:54.071Z,3.36
2022-12-03T08:57:24.097Z,3.36
2022-12-03T08:59:54.757Z,3.35
2022-12-03T09:02:27.335Z,3.38
2022-12-03T09:04:56.386Z,3.37
2022-12-03T09:07:24.973Z,3.36
2022-12-03T09:09:53.805Z,3.37
2022-12-03T09:12:22.437Z,3.38
2022-12-03T09:14:50.965Z,3.39
2022-12-03T09:17:19.863Z,3.37
2022-12-03T09:19:48.450Z,3.37
2022-12-03T09:22:17.648Z,3.40
2022-12-03T09:24:46.129Z,3.44
2022-12-03T09:27:14.710Z,3.50
2022-12-03T09:29:43.145Z,3.53
2022-12-03T09:32:16.683Z,3.58
2022-12-03T09:34:47.121Z,3.62
2022-12-03T09:37:15.615Z,3.61
2022-12-03T09:39:43.877Z,3.62
2022-12-03T09:42:12.666Z,3.63
2022-12-03T09:44:41.455Z,3.65
2022-12-03T09:47:10.114Z,3.64
2022-12-03T09:49:39.137Z,3.66
2022-12-03T09:52:07.821Z,3.68
2022-12-03T09:54:40.526Z,3.68
2022-12-03T09:57:13.929Z,3.69
2022-12-03T09:59:42.405Z,3.67
2022-12-03T10:02:20.082Z,3.65
2022-12-03T10:04:49.189Z,3.62
2022-12-03T10:07:18.169Z,3.60
2022-12-03T10:09:46.652Z,3.61
2022-12-03T10:12:15.645Z,3.61
2022-12-03T10:14:44.078Z,3.59
2022-12-03T10:17:12.860Z,3.61
2022-12-03T10:19:42.932Z,3.62
2022-12-03T10:22:11.322Z,3.62
2022-12-03T10:24:40.474Z,3.61
2022-12-03T10:27:22.923Z,3.60
2022-12-03T10:29:58.566Z,3.58
2022-12-03T10:32:43.923Z,3.57
2022-12-03T10:35:35.673Z,3.56
2022-12-03T10:38:46.831Z,3.58
2022-12-03T10:41:25.555Z,3.63
2022-12-03T10:44:22.744Z,3.68
2022-12-03T10:47:46.866Z,3.75
2022-12-03T10:50:19.495Z,3.86
2022-12-03T10:53:28.020Z,3.95
2022-12-03T10:56:36.435Z,4.06
2022-12-03T10:59:05.325Z,4.17
2022-12-03T11:01:33.681Z,4.27
2022-12-03T11:04:04.997Z,4.33
2022-12-03T11:06:33.947Z,4.37
2022-12-03T11:09:08.812Z,4.45
2022-12-03T11:11:38.186Z,4.49
2022-12-03T11:14:06.537Z,4.51
2022-12-03T11:16:41.073Z,4.54
2022-12-03T11:19:12.433Z,4.55
2022-12-03T11:21:59.763Z,4.58
2022-12-03T11:24:28.545Z,4.58
2022-12-03T11:26:56.823Z,4.61
2022-12-03T11:29:44.144Z,4.67
2022-12-03T11:32:32.493Z,4.68
2022-12-03T11:35:01.040Z,4.73
2022-12-03T11:37:29.884Z,4.77
2022-12-03T11:39:59.678Z,4.84
2022-12-03T11:42:29.695Z,4.93
2022-12-03T11:45:04.757Z,4.99
2022-12-03T11:47:37.616Z,5.05
2022-12-03T11:50:23.811Z,5.09
2022-12-03T11:52:56.698Z,5.11
2022-12-03T11:55:33.376Z,5.08
2022-12-03T11:58:03.901Z,5.06
2022-12-03T12:00:32.486Z,5.06
2022-12-03T12:03:00.939Z,5.06
2022-12-03T12:05:33.955Z,5.09
2022-12-03T12:08:03.271Z,5.12
2022-12-03T12:10:41.465Z,5.15
2022-12-03T12:13:28.480Z,5.14
2022-12-03T12:16:00.175Z,5.17
2022-12-03T12:18:38.250Z,5.24
2022-12-03T12:21:25.980Z,5.30
2022-12-03T12:23:54.568Z,5.36
2022-12-03T12:26:23.045Z,5.43
2022-12-03T12:28:51.628Z,5.45
2022-12-03T12:31:20.221Z,5.49
2022-12-03T12:33:48.694Z,5.50
2022-12-03T12:36:17.077Z,5.52
2022-12-03T12:38:45.865Z,5.54
2022-12-03T12:41:14.245Z,5.55
2022-12-03T12:43:42.622Z,5.59
2022-12-03T12:46:46.076Z,5.64
2022-12-03T12:49:03.240Z,5.70
2022-12-03T12:51:31.618Z,5.74
2022-12-03T12:54:03.177Z,5.79
2022-12-03T12:56:32.595Z,5.83
2022-12-03T12:59:12.057Z,5.84
2022-12-03T13:01:41.588Z,5.87
2022-12-03T13:04:20.859Z,5.90
2022-12-03T13:07:29.318Z,5.91
2022-12-03T13:10:37.799Z,5.92
2022-12-03T13:13:18.263Z,5.90
2022-12-03T13:16:01.290Z,5.85
2022-12-03T13:18:33.141Z,5.87
2022-12-03T13:21:12.068Z,5.89
2022-12-03T13:23:40.653Z,5.90
2022-12-03T13:26:38.206Z,5.87
2022-12-03T13:29:57.033Z,5.86
2022-12-03T13:33:08.788Z,5.81
2022-12-03T13:39:13.601Z,5.73
2022-12-03T13:42:01.571Z,5.73
2022-12-03T13:44:31.895Z,5.71
2022-12-03T13:47:02.740Z,5.64
2022-12-03T13:49:31.211Z,5.61
2022-12-03T13:52:00.889Z,5.60
2022-12-03T13:54:31.502Z,5.60
2022-12-03T13:57:00.548Z,5.61
2022-12-03T13:59:29.102Z,5.61
2022-12-03T14:01:57.494Z,5.65
2022-12-03T14:04:25.998Z,5.69
2022-12-03T14:06:54.542Z,5.71
2022-12-03T14:09:22.957Z,5.73
2022-12-03T14:12:10.281Z,5.71
2022-12-03T14:14:38.762Z,5.67
2022-12-03T14:17:09.749Z,5.61
2022-12-03T14:19:38.594Z,5.56
2022-12-03T14:22:09.532Z,5.58
2022-12-03T14:24:38.117Z,5.58
2022-12-03T14:27:06.700Z,5.60
2022-12-03T14:29:35.184Z,5.62
2022-12-03T14:32:03.815Z,5.66
2022-12-03T14:34:32.248Z,5.72
2022-12-03T14:37:00.741Z,5.78
2022-12-03T14:40:09.140Z,5.79
2022-12-03T14:42:37.836Z,5.80
2022-12-03T14:45:07.135Z,5.80
2022-12-03T14:47:35.796Z,5.78
2022-12-03T14:50:32.857Z,5.76
2022-12-03T14:53:01.355Z,5.68
2022-12-03T14:55:29.988Z,5.59
2022-12-03T14:57:58.313Z,5.46
2022-12-03T15:00:26.801Z,5.35
2022-12-03T15:02:55.325Z,5.24
2022-12-03T15:05:28.616Z,5.11
2022-12-03T15:07:58.124Z,5.03
2022-12-03T15:10:26.672Z,5.00
2022-12-03T15:12:54.944Z,4.95
2022-12-03T15:15:23.834Z,4.86
2022-12-03T15:17:52.418Z,4.77
2022-12-03T15:21:00.633Z,4.66
2022-12-03T15:27:41.943Z,4.40
2022-12-03T15:30:50.589Z,4.26
2022-12-03T15:33:59.186Z,4.23
2022-12-03T15:44:32.096Z,3.94
2022-12-03T15:47:00.515Z,3.87
2022-12-03T15:49:29.098Z,3.82
2022-12-03T15:51:57.887Z,3.79
2022-12-03T15:54:26.053Z,3.76
2022-12-03T15:56:57.403Z,3.75
2022-12-03T15:59:26.505Z,3.72
2022-12-03T16:01:54.972Z,3.69
2022-12-03T16:04:23.881Z,3.65
2022-12-03T16:06:52.841Z,3.57
2022-12-03T16:09:26.723Z,3.50
2022-12-03T16:11:56.388Z,3.43
2022-12-03T16:14:24.668Z,3.37
2022-12-03T16:16:52.943Z,3.34
2022-12-03T16:19:22.144Z,3.33
2022-12-03T16:21:50.424Z,3.31
2022-12-03T16:24:18.898Z,3.30
2022-12-03T16:26:47.586Z,3.30
2022-12-03T16:29:15.965Z,3.29
2022-12-03T16:31:46.096Z,3.28
2022-12-03T16:34:14.772Z,3.26
2022-12-03T16:36:43.149Z,3.23
2022-12-03T16:39:11.738Z,3.21
2022-12-03T16:41:40.636Z,3.16
2022-12-03T16:44:20.065Z,3.13
2022-12-03T16:46:49.144Z,3.12
2022-12-03T16:49:17.642Z,3.10
2022-12-03T16:51:46.224Z,3.07
2022-12-03T16:54:15.217Z,3.00
2022-12-03T16:56:43.684Z,2.95
2022-12-03T16:59:11.977Z,2.88
2022-12-03T17:01:40.815Z,2.79
2022-12-03T17:04:09.554Z,2.76
2022-12-03T17:06:37.835Z,2.73
2022-12-03T17:09:06.722Z,2.70
2022-12-03T17:11:35.156Z,2.68
2022-12-03T17:14:03.599Z,2.67
2022-12-03T17:16:32.264Z,2.64
2022-12-03T17:19:00.546Z,2.62
2022-12-03T17:21:33.616Z,2.62
2022-12-03T17:24:03.757Z,2.64
2022-12-03T17:26:32.236Z,2.63
2022-12-03T17:29:00.727Z,2.63
2022-12-03T17:31:29.618Z,2.65
2022-12-03T17:33:58.192Z,2.67
2022-12-03T17:36:26.469Z,2.67
2022-12-03T17:38:55.359Z,2.65
2022-12-03T17:41:24.252Z,2.62
2022-12-03T17:43:53.986Z,2.60
2022-12-03T17:46:22.844Z,2.56
2022-12-03T17:48:51.380Z,2.54
2022-12-03T17:51:21.352Z,2.51
2022-12-03T17:53:51.064Z,2.46
2022-12-03T17:56:19.442Z,2.44
2022-12-03T17:58:47.718Z,2.46
2022-12-03T18:01:16.670Z,2.47
2022-12-03T18:03:46.468Z,2.45
2022-12-03T18:06:14.871Z,2.44
2022-12-03T18:08:43.282Z,2.42
2022-12-03T18:11:11.867Z,2.39
2022-12-03T18:13:40.354Z,2.35
2022-12-03T18:16:08.949Z,2.35
2022-12-03T18:18:37.459Z,2.35
2022-12-03T18:21:05.894Z,2.34
2022-12-03T18:23:35.501Z,2.32
2022-12-03T18:26:04.292Z,2.27
2022-12-03T18:28:32.773Z,2.22
2022-12-03T18:31:01.384Z,2.17
2022-12-03T18:33:29.837Z,2.12
2022-12-03T18:35:58.441Z,2.08
2022-12-03T18:38:28.347Z,2.04
2022-12-03T18:40:58.056Z,1.95
2022-12-03T18:43:28.270Z,1.92
2022-12-03T18:45:56.648Z,1.90
2022-12-03T18:48:25.642Z,1.87
2022-12-03T18:50:55.044Z,1.84
2022-12-03T18:53:23.322Z,1.87
2022-12-03T18:55:52.216Z,1.89
2022-12-03T18:58:20.774Z,1.91
2022-12-03T19:00:49.117Z,1.91
2022-12-03T19:03:18.045Z,1.90
2022-12-03T19:05:46.653Z,1.87
2022-12-03T19:08:15.423Z,1.86
2022-12-03T19:10:44.473Z,1.87
2022-12-03T19:13:12.819Z,1.87
2022-12-03T19:15:41.408Z,1.88
2022-12-03T19:18:10.086Z,1.84
2022-12-03T19:20:40.099Z,1.82
2022-12-03T19:23:08.481Z,1.80
2022-12-03T19:25:37.371Z,1.76
2022-12-03T19:28:05.952Z,1.75
2022-12-03T19:30:34.444Z,1.75
2022-12-03T19:33:03.225Z,1.73
2022-12-03T19:35:32.935Z,1.71
2022-12-03T19:38:01.315Z,1.68
2022-12-03T19:40:32.458Z,1.64
2022-12-03T19:43:00.714Z,1.57
2022-12-03T19:45:29.078Z,1.52
2022-12-03T19:47:58.209Z,1.47
2022-12-03T19:50:26.898Z,1.46
2022-12-03T19:52:55.173Z,1.44
2022-12-03T19:55:23.964Z,1.43
2022-12-03T19:57:52.463Z,1.44
2022-12-03T20:00:20.925Z,1.45
2022-12-03T20:02:50.289Z,1.42
2022-12-03T20:05:18.910Z,1.39
2022-12-03T20:07:47.285Z,1.37
2022-12-03T20:10:16.079Z,1.37
2022-12-03T20:12:44.458Z,1.37
2022-12-03T20:15:13.990Z,1.38
2022-12-03T20:17:42.552Z,1.41
2022-12-03T20:20:11.131Z,1.44
2022-12-03T20:22:39.613Z,1.48
2022-12-03T20:25:08.504Z,1.54
2022-12-03T20:27:37.294Z,1.58
2022-12-03T20:30:06.186Z,1.62
2022-12-03T20:32:38.220Z,1.67
2022-12-03T20:35:09.498Z,1.67
2022-12-03T20:37:38.079Z,1.65
2022-12-03T20:40:06.716Z,1.63
2022-12-03T20:42:35.145Z,1.62
2022-12-03T20:45:04.148Z,1.61
2022-12-03T20:47:32.415Z,1.61
2022-12-03T20:50:01.103Z,1.61
2022-12-03T20:52:30.310Z,1.63
2022-12-03T20:54:58.577Z,1.63
2022-12-03T20:57:27.260Z,1.59
2022-12-03T20:59:56.415Z,1.57
2022-12-03T21:02:25.027Z,1.58
2022-12-03T21:04:53.732Z,1.55
2022-12-03T21:07:22.339Z,1.54
2022-12-03T21:09:51.108Z,1.54
2022-12-03T21:12:19.692Z,1.54
2022-12-03T21:14:48.478Z,1.53
2022-12-03T21:17:16.962Z,1.52
2022-12-03T21:19:47.185Z,1.51
2022-12-03T21:22:15.867Z,1.50
2022-12-03T21:24:44.252Z,1.51
2022-12-03T21:27:15.797Z,1.52
2022-12-03T21:29:48.889Z,1.52
2022-12-03T21:32:17.228Z,1.55
2022-12-03T21:34:45.651Z,1.57
2022-12-03T21:37:14.232Z,1.58
2022-12-03T21:39:42.713Z,1.58
2022-12-03T21:42:34.153Z,1.58
2022-12-03T21:45:00.065Z,1.54
2022-12-03T21:47:33.462Z,1.50
2022-12-03T21:50:06.745Z,1.47
2022-12-03T21:52:35.741Z,1.46
2022-12-03T21:55:04.118Z,1.45
2022-12-03T21:57:35.223Z,1.44
2022-12-03T22:00:05.532Z,1.43
2022-12-03T22:02:40.540Z,1.43
2022-12-03T22:05:10.397Z,1.43
2022-12-03T22:07:39.733Z,1.44
2022-12-03T22:10:09.536Z,1.49
2022-12-03T22:12:38.381Z,1.53
2022-12-03T22:15:07.127Z,1.56
2022-12-03T22:17:36.097Z,1.58
2022-12-03T22:20:06.137Z,1.60
2022-12-03T22:22:34.418Z,1.64
2022-12-03T22:25:03.202Z,1.69
2022-12-03T22:27:31.684Z,1.71
2022-12-03T22:30:00.186Z,1.72
2022-12-03T22:32:28.956Z,1.71
2022-12-03T22:34:57.539Z,1.69
2022-12-03T22:37:25.699Z,1.68
2022-12-03T22:39:54.606Z,1.67
2022-12-03T22:42:23.495Z,1.66
2022-12-03T22:44:51.772Z,1.66
2022-12-03T22:47:20.356Z,1.66
2022-12-03T22:49:49.146Z,1.66
2022-12-03T22:52:17.626Z,1.65
2022-12-03T22:54:46.148Z,1.66
2022-12-03T22:57:14.588Z,1.68
2022-12-03T22:59:43.071Z,1.70
2022-12-03T23:02:11.729Z,1.72
2022-12-03T23:04:40.444Z,1.74
2022-12-03T23:07:08.926Z,1.78
2022-12-03T23:09:37.384Z,1.81
2022-12-03T23:12:05.992Z,1.85
2022-12-03T23:14:34.472Z,1.87
2022-12-03T23:17:03.055Z,1.89
2022-12-03T23:19:31.642Z,1.93
2022-12-03T23:22:00.020Z,1.94
2022-12-03T23:24:29.425Z,1.93
2022-12-03T23:26:58.179Z,1.90
2022-12-03T23:29:26.387Z,1.86
2022-12-03T23:31:55.072Z,1.82
2022-12-03T23:34:23.609Z,1.79
2022-12-03T23:36:51.955Z,1.76
2022-12-03T23:39:20.517Z,1.72
2022-12-03T23:41:51.972Z,1.71
2022-12-03T23:44:20.346Z,1.71
2022-12-03T23:46:49.060Z,1.69
2022-12-03T23:49:17.616Z,1.68
2022-12-03T23:51:46.098Z,1.68
2022-12-03T23:54:14.683Z,1.67
2022-12-03T23:56:43.166Z,1.66
2022-12-03T23:59:11.593Z,1.64
